createdAt,value
2023-04-03T00:00:18.040Z,100.00
2023-04-03T00:02:45.940Z,100.00
2023-04-03T00:05:13.833Z,100.00
2023-04-03T00:07:41.286Z,100.00
2023-04-03T00:10:09.640Z,100.00
2023-04-03T00:12:36.945Z,100.00
2023-04-03T00:15:05.473Z,100.00
2023-04-03T00:17:33.297Z,100.00
2023-04-03T00:20:01.151Z,100.00
2023-04-03T00:22:29.724Z,100.00
2023-04-03T00:24:57.309Z,100.00
2023-04-03T00:27:25.344Z,99.63
2023-04-03T00:29:53.899Z,98.31
2023-04-03T00:32:21.835Z,99.21
2023-04-03T00:34:49.470Z,98.84
2023-04-03T00:37:17.266Z,97.98
2023-04-03T00:39:45.097Z,100.00
2023-04-03T00:42:13.438Z,99.26
2023-04-03T00:44:41.184Z,97.36
2023-04-03T00:47:10.346Z,97.28
2023-04-03T00:49:39.783Z,97.71
2023-04-03T00:52:11.595Z,97.28
2023-04-03T00:54:39.806Z,95.69
2023-04-03T00:57:08.481Z,96.36
2023-04-03T00:59:39.652Z,98.39
2023-04-03T01:02:07.089Z,99.80
2023-04-03T01:04:39.559Z,100.00
2023-04-03T01:07:38.141Z,100.00
2023-04-03T01:10:08.608Z,100.00
2023-04-03T01:12:39.964Z,100.00
2023-04-03T01:15:11.194Z,100.00
2023-04-03T01:17:38.981Z,100.00
2023-04-03T01:20:12.670Z,100.00
2023-04-03T01:22:47.355Z,100.00
2023-04-03T01:25:14.821Z,100.00
2023-04-03T01:27:42.720Z,100.00
2023-04-03T01:30:11.152Z,100.00
2023-04-03T01:32:39.080Z,100.00
2023-04-03T01:35:09.317Z,100.00
2023-04-03T01:37:36.665Z,100.00
2023-04-03T01:40:04.256Z,100.00
2023-04-03T01:42:32.787Z,100.00
2023-04-03T01:45:00.286Z,100.00
2023-04-03T01:47:28.230Z,100.00
2023-04-03T01:49:55.705Z,100.00
2023-04-03T01:52:23.104Z,100.00
2023-04-03T01:54:52.639Z,100.00
2023-04-03T01:57:20.537Z,100.00
2023-04-03T01:59:49.070Z,100.00
2023-04-03T02:02:17.926Z,100.00
2023-04-03T02:04:45.464Z,100.00
2023-04-03T02:07:12.995Z,100.00
2023-04-03T02:09:40.311Z,100.00
2023-04-03T02:12:08.243Z,100.00
2023-04-03T02:14:35.656Z,100.00
2023-04-03T02:17:06.170Z,100.00
2023-04-03T02:19:36.636Z,100.00
2023-04-03T02:22:04.653Z,100.00
2023-04-03T02:24:32.710Z,100.00
2023-04-03T02:27:00.926Z,100.00
2023-04-03T02:29:28.492Z,100.00
2023-04-03T02:31:56.295Z,100.00
2023-04-03T02:34:25.553Z,100.00
2023-04-03T02:36:54.313Z,100.00
2023-04-03T02:39:22.413Z,100.00
2023-04-03T02:41:50.557Z,100.00
2023-04-03T02:44:24.748Z,100.00
2023-04-03T02:46:53.614Z,100.00
2023-04-03T02:49:21.177Z,100.00
2023-04-03T02:51:48.884Z,100.00
2023-04-03T02:54:16.581Z,100.00
2023-04-03T02:56:48.530Z,100.00
2023-04-03T02:59:16.030Z,100.00
2023-04-03T03:01:44.635Z,100.00
2023-04-03T03:04:12.096Z,100.00
2023-04-03T03:06:40.043Z,100.00
2023-04-03T03:09:07.990Z,100.00
2023-04-03T03:11:35.963Z,100.00
2023-04-03T03:14:04.775Z,100.00
2023-04-03T03:16:32.248Z,100.00
2023-04-03T03:19:00.704Z,100.00
2023-04-03T03:21:28.645Z,100.00
2023-04-03T03:23:56.510Z,100.00
2023-04-03T03:26:24.832Z,100.00
2023-04-03T03:28:52.726Z,100.00
2023-04-03T03:31:20.715Z,100.00
2023-04-03T03:33:48.173Z,100.00
2023-04-03T03:36:16.241Z,100.00
2023-04-03T03:38:43.630Z,100.00
2023-04-03T03:41:11.413Z,100.00
2023-04-03T03:43:40.282Z,100.00
2023-04-03T03:46:09.345Z,99.70
2023-04-03T03:48:37.144Z,100.00
2023-04-03T03:51:04.608Z,96.58
2023-04-03T03:53:36.259Z,96.91
2023-04-03T03:56:07.647Z,94.81
2023-04-03T03:58:37.722Z,95.23
2023-04-03T04:01:06.979Z,93.34
2023-04-03T04:03:39.745Z,91.78
2023-04-03T04:06:10.600Z,91.98
2023-04-03T04:08:39.156Z,90.81
2023-04-03T04:11:10.069Z,90.77
2023-04-03T04:13:38.879Z,89.95
2023-04-03T04:16:07.738Z,90.43
2023-04-03T04:18:35.525Z,90.33
2023-04-03T04:21:03.014Z,89.40
2023-04-03T04:23:31.358Z,88.37
2023-04-03T04:26:00.421Z,89.42
2023-04-03T04:28:31.628Z,88.78
2023-04-03T04:31:00.807Z,88.61
2023-04-03T04:33:29.409Z,87.61
2023-04-03T04:36:00.260Z,88.09
2023-04-03T04:38:28.312Z,87.38
2023-04-03T04:40:56.180Z,88.11
2023-04-03T04:43:24.314Z,87.77
2023-04-03T04:46:08.966Z,87.54
2023-04-03T04:48:42.297Z,86.95
2023-04-03T04:51:11.440Z,87.22
2023-04-03T04:53:39.650Z,87.26
2023-04-03T04:56:08.562Z,86.59
2023-04-03T04:58:38.601Z,86.33
2023-04-03T05:01:08.424Z,86.21
2023-04-03T05:03:40.072Z,86.72
2023-04-03T05:06:08.364Z,87.26
2023-04-03T05:08:36.874Z,87.87
2023-04-03T05:11:05.584Z,87.97
2023-04-03T05:13:33.307Z,87.65
2023-04-03T05:16:01.431Z,87.59
2023-04-03T05:18:29.481Z,87.54
2023-04-03T05:20:59.794Z,87.53
2023-04-03T05:23:27.818Z,86.27
2023-04-03T05:25:57.186Z,85.33
2023-04-03T05:28:25.533Z,85.67
2023-04-03T05:30:55.991Z,86.33
2023-04-03T05:33:24.272Z,84.23
2023-04-03T05:35:55.525Z,83.95
2023-04-03T05:38:27.989Z,83.65
2023-04-03T05:40:56.405Z,82.90
2023-04-03T05:43:24.946Z,82.73
2023-04-03T05:45:53.416Z,82.27
2023-04-03T05:48:22.822Z,81.80
2023-04-03T05:50:50.947Z,81.17
2023-04-03T05:53:27.297Z,79.93
2023-04-03T05:55:56.291Z,78.05
2023-04-03T05:58:24.911Z,78.48
2023-04-03T06:00:53.971Z,76.43
2023-04-03T06:03:22.036Z,78.40
2023-04-03T06:05:49.779Z,77.88
2023-04-03T06:08:17.202Z,78.66
2023-04-03T06:10:45.906Z,78.93
2023-04-03T06:13:13.616Z,77.97
2023-04-03T06:15:41.541Z,78.40
2023-04-03T06:18:10.171Z,78.96
2023-04-03T06:20:38.397Z,79.29
2023-04-03T06:23:08.540Z,79.03
2023-04-03T06:25:36.139Z,79.77
2023-04-03T06:28:03.430Z,80.11
2023-04-03T06:30:31.306Z,80.44
2023-04-03T06:33:00.496Z,81.55
2023-04-03T06:35:29.685Z,81.78
2023-04-03T06:37:57.233Z,80.88
2023-04-03T06:40:26.132Z,80.73
2023-04-03T06:42:54.409Z,80.73
2023-04-03T06:45:22.774Z,81.41
2023-04-03T06:47:50.417Z,82.83
2023-04-03T06:50:17.955Z,80.99
2023-04-03T06:52:45.936Z,80.66
2023-04-03T06:55:13.889Z,81.27
2023-04-03T06:57:41.233Z,80.17
2023-04-03T07:00:10.222Z,79.81
2023-04-03T07:02:37.704Z,77.68
2023-04-03T07:05:07.138Z,78.65
2023-04-03T07:07:35.521Z,78.12
2023-04-03T07:10:03.872Z,77.25
2023-04-03T07:12:31.776Z,77.81
2023-04-03T07:14:59.405Z,77.34
2023-04-03T07:17:28.002Z,77.51
2023-04-03T07:19:55.673Z,78.13
2023-04-03T07:22:23.511Z,79.76
2023-04-03T07:24:50.795Z,77.56
2023-04-03T07:27:18.917Z,75.74
2023-04-03T07:29:46.525Z,74.33
2023-04-03T07:32:14.483Z,73.45
2023-04-03T07:34:42.747Z,73.55
2023-04-03T07:37:10.405Z,74.61
2023-04-03T07:39:38.181Z,75.86
2023-04-03T07:42:06.168Z,72.77
2023-04-03T07:44:33.661Z,74.46
2023-04-03T07:47:01.797Z,74.57
2023-04-03T07:49:29.765Z,74.60
2023-04-03T07:51:57.512Z,73.46
2023-04-03T07:54:24.907Z,73.94
2023-04-03T07:56:52.745Z,72.95
2023-04-03T07:59:20.641Z,70.59
2023-04-03T08:01:48.299Z,70.12
2023-04-03T08:04:16.294Z,66.99
2023-04-03T08:06:46.971Z,65.15
2023-04-03T08:09:17.816Z,63.67
2023-04-03T08:11:46.159Z,63.79
2023-04-03T08:14:18.037Z,63.96
2023-04-03T08:16:47.152Z,62.47
2023-04-03T08:19:25.368Z,61.65
2023-04-03T08:21:54.791Z,61.77
2023-04-03T08:24:22.507Z,65.39
2023-04-03T08:26:51.272Z,63.84
2023-04-03T08:29:18.694Z,60.41
2023-04-03T08:31:46.487Z,61.58
2023-04-03T08:34:14.232Z,59.35
2023-04-03T08:36:42.831Z,59.67
2023-04-03T08:39:11.584Z,58.38
2023-04-03T08:41:40.769Z,58.14
2023-04-03T08:44:38.453Z,57.64
2023-04-03T08:47:26.337Z,56.53
2023-04-03T08:49:58.938Z,57.54
2023-04-03T08:52:39.361Z,57.41
2023-04-03T08:55:26.220Z,56.02
2023-04-03T08:58:00.286Z,55.95
2023-04-03T09:00:29.982Z,55.93
2023-04-03T09:02:58.292Z,54.81
2023-04-03T09:05:26.778Z,54.21
2023-04-03T09:07:58.954Z,53.10
2023-04-03T09:10:29.462Z,54.82
2023-04-03T09:13:08.276Z,52.08
2023-04-03T09:15:39.346Z,51.71
2023-04-03T09:18:16.557Z,51.17
2023-04-03T09:21:02.789Z,49.73
2023-04-03T09:23:34.377Z,47.88
2023-04-03T09:26:15.650Z,46.99
2023-04-03T09:28:50.299Z,47.36
2023-04-03T09:31:27.350Z,45.45
2023-04-03T09:34:01.786Z,43.12
2023-04-03T09:36:41.019Z,41.11
2023-04-03T09:39:13.850Z,41.17
2023-04-03T09:41:42.020Z,41.41
2023-04-03T09:44:21.674Z,43.75
2023-04-03T09:46:50.444Z,45.21
2023-04-03T09:49:18.982Z,43.17
2023-04-03T09:51:47.017Z,42.75
2023-04-03T09:54:34.682Z,44.42
2023-04-03T09:57:08.926Z,45.04
2023-04-03T09:59:39.616Z,43.40
2023-04-03T10:02:07.459Z,40.42
2023-04-03T10:04:39.276Z,38.72
2023-04-03T10:07:27.939Z,38.32
2023-04-03T10:09:57.515Z,40.50
2023-04-03T10:12:25.054Z,43.41
2023-04-03T10:14:56.577Z,41.86
2023-04-03T10:17:27.396Z,42.38
2023-04-03T10:19:58.566Z,40.41
2023-04-03T10:22:33.544Z,40.61
2023-04-03T10:25:05.348Z,37.39
2023-04-03T10:27:51.495Z,39.96
2023-04-03T10:30:18.896Z,39.03
2023-04-03T10:32:55.004Z,37.93
2023-04-03T10:35:40.716Z,40.21
2023-04-03T10:38:14.363Z,39.69
2023-04-03T10:40:45.512Z,41.07
2023-04-03T10:43:23.042Z,41.20
2023-04-03T10:45:56.597Z,38.83
2023-04-03T10:48:24.893Z,41.72
2023-04-03T10:51:11.492Z,39.85
2023-04-03T10:53:48.927Z,36.79
2023-04-03T10:56:23.088Z,35.78
2023-04-03T10:58:55.705Z,34.93
2023-04-03T11:01:26.094Z,35.33
2023-04-03T11:03:56.863Z,35.85
2023-04-03T11:06:27.580Z,38.58
2023-04-03T11:08:58.967Z,38.04
2023-04-03T11:11:31.938Z,36.78
2023-04-03T11:14:04.129Z,36.49
2023-04-03T11:16:40.627Z,35.45
2023-04-03T11:19:31.179Z,32.32
2023-04-03T11:22:03.119Z,32.26
2023-04-03T11:24:32.510Z,34.73
2023-04-03T11:27:00.888Z,34.35
2023-04-03T11:29:39.059Z,35.02
2023-04-03T11:32:22.235Z,32.85
2023-04-03T11:34:51.825Z,32.47
2023-04-03T11:37:36.789Z,31.44
2023-04-03T11:40:26.447Z,32.21
2023-04-03T11:42:56.163Z,31.97
2023-04-03T11:45:24.551Z,32.26
2023-04-03T11:47:52.439Z,30.30
2023-04-03T11:50:33.030Z,31.30
2023-04-03T11:53:09.595Z,28.54
2023-04-03T11:55:43.536Z,28.56
2023-04-03T11:58:19.077Z,30.61
2023-04-03T12:00:52.651Z,29.92
2023-04-03T12:03:27.668Z,30.17
2023-04-03T12:05:58.600Z,29.69
2023-04-03T12:08:45.616Z,27.79
2023-04-03T12:11:13.552Z,27.47
2023-04-03T12:13:41.509Z,28.55
2023-04-03T12:16:29.324Z,27.90
2023-04-03T12:18:57.008Z,28.63
2023-04-03T12:21:44.716Z,31.86
2023-04-03T12:24:18.718Z,33.59
2023-04-03T12:26:51.951Z,31.24
2023-04-03T12:29:29.823Z,29.79
2023-04-03T12:32:16.305Z,30.71
2023-04-03T12:34:44.186Z,32.58
2023-04-03T12:37:29.355Z,31.75
2023-04-03T12:40:01.112Z,32.77
2023-04-03T12:42:36.974Z,32.16
2023-04-03T12:45:33.634Z,30.01
2023-04-03T12:48:03.739Z,29.12
2023-04-03T12:50:34.971Z,31.93
2023-04-03T12:53:07.606Z,33.08
2023-04-03T12:55:35.857Z,32.22
2023-04-03T12:58:18.129Z,31.67
2023-04-03T13:00:45.722Z,32.30
2023-04-03T13:03:31.893Z,32.18
2023-04-03T13:06:04.859Z,28.60
2023-04-03T13:08:33.426Z,27.19
2023-04-03T13:11:05.073Z,27.31
2023-04-03T13:13:33.329Z,29.54
2023-04-03T13:16:00.892Z,32.71
2023-04-03T13:18:34.126Z,32.37
2023-04-03T13:21:27.752Z,32.15
2023-04-03T13:24:11.441Z,32.86
2023-04-03T13:26:43.188Z,34.01
2023-04-03T13:29:29.930Z,34.44
2023-04-03T13:32:00.209Z,34.94
2023-04-03T13:34:37.607Z,34.62
2023-04-03T13:37:06.412Z,37.42
2023-04-03T13:39:38.625Z,36.78
2023-04-03T13:42:24.232Z,37.50
2023-04-03T13:45:07.484Z,38.73
2023-04-03T13:47:42.711Z,38.93
2023-04-03T13:50:16.280Z,38.70
2023-04-03T13:52:46.530Z,38.26
2023-04-03T13:55:25.204Z,38.49
2023-04-03T13:58:01.140Z,38.84
2023-04-03T14:00:31.632Z,40.06
2023-04-03T14:02:59.387Z,39.29
2023-04-03T14:05:27.659Z,39.36
2023-04-03T14:07:56.247Z,40.02
2023-04-03T14:10:24.324Z,41.02
2023-04-03T14:12:52.181Z,40.07
2023-04-03T14:15:28.448Z,40.24
2023-04-03T14:17:56.499Z,39.98
2023-04-03T14:20:25.697Z,39.07
2023-04-03T14:22:54.725Z,39.17
2023-04-03T14:25:24.861Z,40.48
2023-04-03T14:27:54.800Z,39.46
2023-04-03T14:30:27.983Z,39.16
2023-04-03T14:32:56.635Z,39.69
2023-04-03T14:35:24.745Z,41.00
2023-04-03T14:37:52.601Z,39.92
2023-04-03T14:40:24.546Z,38.83
2023-04-03T14:42:52.326Z,40.05
2023-04-03T14:45:19.739Z,39.66
2023-04-03T14:47:49.520Z,39.92
2023-04-03T14:50:18.772Z,39.66
2023-04-03T14:52:47.275Z,39.65
2023-04-03T14:55:18.278Z,39.73
2023-04-03T14:57:46.375Z,39.96
2023-04-03T15:00:16.040Z,40.30
2023-04-03T15:02:43.730Z,39.45
2023-04-03T15:05:12.328Z,37.59
2023-04-03T15:07:44.236Z,38.11
2023-04-03T15:10:22.482Z,39.41
2023-04-03T15:12:49.970Z,39.25
2023-04-03T15:15:19.547Z,38.85
2023-04-03T15:17:49.205Z,39.89
2023-04-03T15:20:18.637Z,39.11
2023-04-03T15:22:46.544Z,39.57
2023-04-03T15:25:14.562Z,38.57
2023-04-03T15:27:42.509Z,38.99
2023-04-03T15:30:15.417Z,39.15
2023-04-03T15:32:43.775Z,38.22
2023-04-03T15:35:11.455Z,38.58
2023-04-03T15:37:39.349Z,38.27
2023-04-03T15:40:07.084Z,38.59
2023-04-03T15:42:35.870Z,38.79
2023-04-03T15:45:03.431Z,36.99
2023-04-03T15:47:31.732Z,34.67
2023-04-03T15:49:59.655Z,34.07
2023-04-03T15:52:26.989Z,34.87
2023-04-03T15:54:54.771Z,35.35
2023-04-03T15:57:27.155Z,34.08
2023-04-03T15:59:55.188Z,33.35
2023-04-03T16:02:23.451Z,34.79
2023-04-03T16:04:51.291Z,34.99
2023-04-03T16:07:19.228Z,35.97
2023-04-03T16:09:47.692Z,36.40
2023-04-03T16:12:15.573Z,36.88
2023-04-03T16:14:43.486Z,37.08
2023-04-03T16:17:11.295Z,37.40
2023-04-03T16:19:39.530Z,38.33
2023-04-03T16:22:07.355Z,38.28
2023-04-03T16:24:36.684Z,38.22
2023-04-03T16:27:04.692Z,39.18
2023-04-03T16:29:32.526Z,38.48
2023-04-03T16:32:00.444Z,39.06
2023-04-03T16:34:28.297Z,39.38
2023-04-03T16:36:56.664Z,39.20
2023-04-03T16:39:25.022Z,39.98
2023-04-03T16:41:52.759Z,39.44
2023-04-03T16:44:20.201Z,39.52
2023-04-03T16:46:48.508Z,38.73
2023-04-03T16:49:17.053Z,38.95
2023-04-03T16:51:45.234Z,38.85
2023-04-03T16:54:14.552Z,39.12
2023-04-03T16:56:42.445Z,39.15
2023-04-03T16:59:09.803Z,39.46
2023-04-03T17:01:37.681Z,39.57
2023-04-03T17:04:05.353Z,40.46
2023-04-03T17:06:32.838Z,40.26
2023-04-03T17:09:01.365Z,40.22
2023-04-03T17:11:29.522Z,39.30
2023-04-03T17:13:56.941Z,38.84
2023-04-03T17:16:24.862Z,38.54
2023-04-03T17:18:53.138Z,38.36
2023-04-03T17:21:21.386Z,38.86
2023-04-03T17:23:53.664Z,37.85
2023-04-03T17:26:22.393Z,38.86
2023-04-03T17:28:49.754Z,38.76
2023-04-03T17:31:17.294Z,39.13
2023-04-03T17:33:45.327Z,38.09
2023-04-03T17:36:12.742Z,38.51
2023-04-03T17:38:41.436Z,38.62
2023-04-03T17:41:09.848Z,38.08
2023-04-03T17:43:38.206Z,38.19
2023-04-03T17:46:09.060Z,37.48
2023-04-03T17:48:37.861Z,38.07
2023-04-03T17:51:11.121Z,38.44
2023-04-03T17:53:39.095Z,37.60
2023-04-03T17:56:11.371Z,38.58
2023-04-03T17:58:39.286Z,37.89
2023-04-03T18:01:11.077Z,38.04
2023-04-03T18:03:39.364Z,38.54
2023-04-03T18:06:08.088Z,38.74
2023-04-03T18:08:40.074Z,39.21
2023-04-03T18:11:08.481Z,39.00
2023-04-03T18:13:37.792Z,39.06
2023-04-03T18:16:07.889Z,39.45
2023-04-03T18:18:36.116Z,39.80
2023-04-03T18:21:03.906Z,39.58
2023-04-03T18:23:32.806Z,39.96
2023-04-03T18:26:02.655Z,40.34
2023-04-03T18:28:32.353Z,40.24
2023-04-03T18:31:00.923Z,40.24
2023-04-03T18:33:28.949Z,40.83
2023-04-03T18:35:56.288Z,40.72
2023-04-03T18:38:24.274Z,40.36
2023-04-03T18:40:53.086Z,40.46
2023-04-03T18:43:21.107Z,41.16
2023-04-03T18:45:49.017Z,40.53
2023-04-03T18:48:16.349Z,40.37
2023-04-03T18:50:44.017Z,40.76
2023-04-03T18:53:13.023Z,40.75
2023-04-03T18:55:40.631Z,41.09
2023-04-03T18:58:08.964Z,41.12
2023-04-03T19:00:38.656Z,41.04
2023-04-03T19:03:06.651Z,41.65
2023-04-03T19:05:34.079Z,42.26
2023-04-03T19:08:01.929Z,43.43
2023-04-03T19:10:30.916Z,46.02
2023-04-03T19:12:59.297Z,46.74
2023-04-03T19:15:27.262Z,48.49
2023-04-03T19:17:54.630Z,49.12
2023-04-03T19:20:22.597Z,50.00
2023-04-03T19:22:50.444Z,50.82
2023-04-03T19:25:20.021Z,52.37
2023-04-03T19:27:47.923Z,52.79
2023-04-03T19:30:16.079Z,54.11
2023-04-03T19:32:43.903Z,54.34
2023-04-03T19:35:12.191Z,55.83
2023-04-03T19:37:40.213Z,55.97
2023-04-03T19:40:08.058Z,56.07
2023-04-03T19:42:40.227Z,56.45
2023-04-03T19:45:08.929Z,55.39
2023-04-03T19:47:37.587Z,52.86
2023-04-03T19:50:06.192Z,47.44
2023-04-03T19:52:33.975Z,46.77
2023-04-03T19:55:01.693Z,45.60
2023-04-03T19:57:29.555Z,47.13
2023-04-03T19:59:57.203Z,49.83
2023-04-03T20:02:24.569Z,50.42
2023-04-03T20:04:51.985Z,50.51
2023-04-03T20:07:19.736Z,49.85
2023-04-03T20:09:47.987Z,49.72
2023-04-03T20:12:15.850Z,48.98
2023-04-03T20:14:43.809Z,48.99
2023-04-03T20:17:11.366Z,49.00
2023-04-03T20:19:38.938Z,49.31
2023-04-03T20:22:07.119Z,49.72
2023-04-03T20:24:34.953Z,49.61
2023-04-03T20:27:03.022Z,49.96
2023-04-03T20:29:31.138Z,50.23
2023-04-03T20:31:59.173Z,49.55
2023-04-03T20:34:27.062Z,48.74
2023-04-03T20:36:55.088Z,48.28
2023-04-03T20:39:24.825Z,47.97
2023-04-03T20:41:52.388Z,46.68
2023-04-03T20:44:22.005Z,46.92
2023-04-03T20:46:53.549Z,47.17
2023-04-03T20:49:22.980Z,46.84
2023-04-03T20:51:51.755Z,46.59
2023-04-03T20:54:19.795Z,47.21
2023-04-03T20:56:50.137Z,47.63
2023-04-03T20:59:18.625Z,47.19
2023-04-03T21:01:47.699Z,47.55
2023-04-03T21:04:18.418Z,47.44
2023-04-03T21:07:05.746Z,48.04
2023-04-03T21:09:52.845Z,47.70
2023-04-03T21:12:40.100Z,47.59
2023-04-03T21:15:27.221Z,47.73
2023-04-03T21:18:03.003Z,47.70
2023-04-03T21:20:31.535Z,47.31
2023-04-03T21:22:59.017Z,47.61
2023-04-03T21:25:27.797Z,46.93
2023-04-03T21:27:55.656Z,47.16
2023-04-03T21:30:23.125Z,47.76
2023-04-03T21:32:50.569Z,47.29
2023-04-03T21:35:19.070Z,47.86
2023-04-03T21:37:46.951Z,47.62
2023-04-03T21:40:14.820Z,47.81
2023-04-03T21:42:42.207Z,47.97
2023-04-03T21:45:10.700Z,48.18
2023-04-03T21:47:38.547Z,48.68
2023-04-03T21:50:06.797Z,48.71
2023-04-03T21:52:34.525Z,48.78
2023-04-03T21:55:02.836Z,48.81
2023-04-03T21:57:31.309Z,49.41
2023-04-03T21:59:58.787Z,49.95
2023-04-03T22:02:31.546Z,50.06
2023-04-03T22:04:59.313Z,50.80
2023-04-03T22:07:27.509Z,50.91
2023-04-03T22:09:54.774Z,51.74
2023-04-03T22:12:22.067Z,51.96
2023-04-03T22:14:49.982Z,51.51
2023-04-03T22:17:18.061Z,51.26
2023-04-03T22:19:46.728Z,51.52
2023-04-03T22:22:14.155Z,52.06
2023-04-03T22:24:41.819Z,52.66
2023-04-03T22:27:09.222Z,52.65
2023-04-03T22:29:37.000Z,53.43
2023-04-03T22:32:04.442Z,53.65
2023-04-03T22:34:33.310Z,53.60
2023-04-03T22:37:01.221Z,53.83
2023-04-03T22:39:29.021Z,53.73
2023-04-03T22:41:56.983Z,53.77
2023-04-03T22:44:27.543Z,53.65
2023-04-03T22:46:57.638Z,54.42
2023-04-03T22:49:24.976Z,54.12
2023-04-03T22:51:53.499Z,54.40
2023-04-03T22:54:21.302Z,54.33
2023-04-03T22:56:49.215Z,53.84
2023-04-03T22:59:16.647Z,53.44
2023-04-03T23:01:44.398Z,53.81
2023-04-03T23:04:12.386Z,53.67
2023-04-03T23:06:40.146Z,52.99
2023-04-03T23:09:08.706Z,52.91
2023-04-03T23:11:37.253Z,52.58
2023-04-03T23:14:04.563Z,53.30
2023-04-03T23:16:32.894Z,52.92
2023-04-03T23:19:01.192Z,52.80
2023-04-03T23:21:29.081Z,52.36
2023-04-03T23:23:56.961Z,52.16
2023-04-03T23:26:25.562Z,52.71
2023-04-03T23:28:52.876Z,53.04
2023-04-03T23:31:20.321Z,52.87
2023-04-03T23:33:47.779Z,52.65
2023-04-03T23:36:18.352Z,52.11
2023-04-03T23:38:45.772Z,51.67
2023-04-03T23:41:13.220Z,52.29
2023-04-03T23:43:42.339Z,51.94
2023-04-03T23:46:11.047Z,51.85
2023-04-03T23:48:39.261Z,52.64
2023-04-03T23:51:07.073Z,52.66
2023-04-03T23:53:34.882Z,52.90
2023-04-03T23:56:02.396Z,53.70
2023-04-03T23:58:29.679Z,54.10
